Time;durP1;ratioP1;P1;durP2;ratioP2;P2;SDS_P1;SDS_P2;PMS_P1;PMS_P2;Temp;Humidity;BMP_temperature;BMP_pressure;BME280_temperature;BME280_humidity;BME280_pressure;Samples;Min_cycle;Max_cycle;Signal;HPM_P1;HPM_P2
2023/04/18 00:00:18;;;;;;;1.30;1.20;;;;;;;21.81;28.79;101534.84;4532714;28;20643;-58
2023/04/18 00:02:29;;;;;;;1.50;1.40;;;;;;;21.81;29.02;101543.47;4530832;28;20729;-58
2023/04/18 00:04:40;;;;;;;1.30;1.20;;;;;;;21.77;29.00;101542.47;4516263;28;20046;-58
2023/04/18 00:06:50;;;;;;;1.50;1.40;;;;;;;21.75;29.17;101536.28;4529770;28;20122;-59
2023/04/18 00:09:01;;;;;;;1.30;1.20;;;;;;;21.79;29.22;101548.72;4532683;28;20072;-59
2023/04/18 00:11:11;;;;;;;1.35;1.25;;;;;;;21.77;29.05;101544.53;4530373;28;20049;-58
2023/04/18 00:13:22;;;;;;;1.30;1.20;;;;;;;21.78;29.32;101541.31;4532463;28;20060;-58
2023/04/18 00:15:36;;;;;;;1.40;1.30;;;;;;;21.79;29.06;101548.72;4530935;28;20867;-58
2023/04/18 00:17:47;;;;;;;1.38;1.27;;;;;;;21.75;29.14;101536.28;4530653;28;20144;-59
2023/04/18 00:19:57;;;;;;;1.20;1.10;;;;;;;21.78;28.68;101538.44;4531733;28;20088;-59
2023/04/18 00:22:12;;;;;;;1.52;1.40;;;;;;;21.78;28.47;101535.56;4504962;28;20132;-59
2023/04/18 00:24:22;;;;;;;1.20;1.10;;;;;;;21.75;28.23;101535.38;4514239;28;20041;-58
2023/04/18 00:26:32;;;;;;;1.20;1.10;;;;;;;21.75;28.14;101535.38;4530447;28;20068;-59
2023/04/18 00:28:43;;;;;;;1.23;1.13;;;;;;;21.77;28.14;101545.34;4532736;28;20044;-58
2023/04/18 00:30:54;;;;;;;1.00;1.00;;;;;;;21.71;28.16;101538.13;4531588;28;20164;-60
2023/04/18 00:33:05;;;;;;;1.10;1.00;;;;;;;21.72;28.29;101542.66;4531594;28;20037;-59
2023/04/18 00:35:15;;;;;;;1.05;1.00;;;;;;;21.76;28.04;101545.72;4527796;28;20071;-59
2023/04/18 00:37:26;;;;;;;1.05;0.90;;;;;;;21.75;28.01;101544.00;4530611;28;20446;-58
2023/04/18 00:39:36;;;;;;;1.10;1.00;;;;;;;21.73;28.09;101538.63;4532873;28;20692;-58
2023/04/18 00:41:47;;;;;;;0.90;0.90;;;;;;;21.73;28.20;101544.34;4513267;28;20084;-58
2023/04/18 00:43:57;;;;;;;1.05;0.95;;;;;;;21.75;27.89;101539.16;4531114;28;20436;-59
2023/04/18 00:46:09;;;;;;;1.10;1.00;;;;;;;21.73;27.62;101530.00;4534702;28;20119;-58
2023/04/18 00:48:20;;;;;;;0.90;0.90;;;;;;;21.71;27.64;101532.38;4530924;28;20037;-58
2023/04/18 00:50:30;;;;;;;1.20;1.10;;;;;;;21.72;27.88;101536.09;4528470;28;20049;-59
2023/04/18 00:52:42;;;;;;;1.10;1.00;;;;;;;21.73;27.74;101547.22;4529976;28;20087;-59
2023/04/18 00:54:54;;;;;;;0.90;0.90;;;;;;;21.69;27.84;101539.69;4529598;28;20045;-58
2023/04/18 00:57:04;;;;;;;1.20;1.10;;;;;;;21.74;28.06;101539.47;4532439;28;20072;-58
2023/04/18 00:59:15;;;;;;;1.33;1.23;;;;;;;21.73;28.19;101547.22;4522306;28;20591;-58
2023/04/18 01:01:26;;;;;;;1.23;0.98;;;;;;;21.68;27.85;101541.69;4533651;28;20087;-58
2023/04/18 01:03:38;;;;;;;1.27;0.93;;;;;;;21.73;28.23;101549.25;4535404;28;20041;-59
2023/04/18 01:05:52;;;;;;;1.05;1.00;;;;;;;21.72;28.28;101541.84;4531559;28;20603;-58
2023/04/18 01:08:02;;;;;;;0.85;0.85;;;;;;;21.73;27.90;101550.09;4516573;28;20037;-58
2023/04/18 01:10:13;;;;;;;1.13;1.02;;;;;;;21.72;27.94;101542.66;4533268;28;20025;-58
2023/04/18 01:12:25;;;;;;;1.17;1.08;;;;;;;21.70;28.09;101542.19;4517295;28;20038;-58
2023/04/18 01:14:44;;;;;;;1.08;0.98;;;;;;;21.69;27.86;101540.50;4536237;28;20329;-60
2023/04/18 01:16:56;;;;;;;1.00;1.00;;;;;;;21.69;28.15;101540.50;4534650;28;20123;-58
2023/04/18 01:19:07;;;;;;;1.10;1.00;;;;;;;21.61;28.30;101527.03;4532445;28;20069;-58
2023/04/18 01:21:18;;;;;;;1.02;1.00;;;;;;;21.70;27.67;101538.47;4531393;28;20127;-58
2023/04/18 01:23:29;;;;;;;1.20;1.10;;;;;;;21.70;28.14;101533.56;4532294;28;20037;-58
2023/04/18 01:25:40;;;;;;;1.30;1.20;;;;;;;21.66;27.75;101529.72;4532117;28;20558;-58
2023/04/18 01:27:50;;;;;;;1.10;1.00;;;;;;;21.68;28.28;101533.06;4535038;28;20121;-58
2023/04/18 01:30:00;;;;;;;1.20;1.10;;;;;;;21.65;28.30;101528.03;4531374;28;20041;-59
2023/04/18 01:32:14;;;;;;;1.10;1.00;;;;;;;21.69;27.78;101534.75;4520393;28;20034;-58
2023/04/18 01:34:24;;;;;;;0.85;0.85;;;;;;;21.64;27.95;101526.38;4533961;28;20498;-59
2023/04/18 01:36:36;;;;;;;1.20;0.93;;;;;;;21.68;28.07;101524.47;4534775;28;20456;-59
2023/04/18 01:38:46;;;;;;;1.10;1.00;;;;;;;21.64;27.81;101523.50;4510214;28;20137;-58
2023/04/18 01:40:57;;;;;;;1.20;1.10;;;;;;;21.68;27.98;101532.22;4513684;28;20072;-58
2023/04/18 01:43:07;;;;;;;1.10;1.00;;;;;;;21.66;28.29;101532.59;4532230;28;20555;-58
2023/04/18 01:45:21;;;;;;;1.30;1.20;;;;;;;21.67;27.99;101540.03;4533476;28;20040;-59
2023/04/18 01:47:31;;;;;;;1.30;1.20;;;;;;;21.62;28.08;101520.13;4532198;28;20973;-58
2023/04/18 01:49:46;;;;;;;1.30;1.20;;;;;;;21.66;27.63;101532.59;4534542;28;20130;-59
2023/04/18 01:51:57;;;;;;;1.20;1.10;;;;;;;21.64;27.94;101523.50;4531742;28;20045;-58
2023/04/18 01:54:07;;;;;;;1.17;1.10;;;;;;;21.64;28.11;101523.50;4534731;28;20049;-58
2023/04/18 01:56:18;;;;;;;1.13;1.02;;;;;;;21.65;28.16;101530.91;4532669;28;20509;-58
2023/04/18 01:58:28;;;;;;;1.10;1.00;;;;;;;21.58;28.11;101522.00;4533247;28;20073;-58
2023/04/18 02:00:40;;;;;;;1.33;1.23;;;;;;;21.57;27.82;101517.47;4518607;28;21354;-58
2023/04/18 02:02:50;;;;;;;1.40;1.30;;;;;;;21.61;27.86;101520.47;4533552;28;20041;-58
2023/04/18 02:05:01;;;;;;;1.30;1.20;;;;;;;21.64;27.76;101517.75;4513556;28;20038;-58
2023/04/18 02:07:11;;;;;;;1.20;1.10;;;;;;;21.62;28.02;101522.16;4514856;28;20411;-58
2023/04/18 02:09:21;;;;;;;1.17;1.08;;;;;;;21.64;27.93;101526.38;4532507;28;20045;-58
2023/04/18 02:11:32;;;;;;;1.00;1.00;;;;;;;21.62;28.00;101525.03;4534052;28;20137;-59
2023/04/18 02:13:42;;;;;;;1.30;1.20;;;;;;;21.63;28.38;101521.78;4519073;28;20040;-58
2023/04/18 02:15:53;;;;;;;1.20;1.10;;;;;;;21.55;28.12;101516.16;4532410;28;20123;-59
2023/04/18 02:18:03;;;;;;;1.10;1.05;;;;;;;21.63;28.17;101539.03;4529944;28;20068;-58
2023/04/18 02:20:14;;;;;;;1.30;1.20;;;;;;;21.61;28.55;101529.91;4531414;28;20120;-58
2023/04/18 02:22:24;;;;;;;1.17;1.08;;;;;;;21.58;28.43;101524.88;4534828;28;20127;-57
2023/04/18 02:24:35;;;;;;;1.50;1.40;;;;;;;21.58;28.14;101522.00;4533255;28;20552;-59
2023/04/18 02:26:45;;;;;;;1.48;1.38;;;;;;;21.56;28.54;101512.91;4514258;28;20469;-58
2023/04/18 02:28:57;;;;;;;1.67;1.58;;;;;;;21.57;28.46;101525.22;4533222;28;20254;-58
2023/04/18 02:31:13;;;;;;;1.50;1.40;;;;;;;21.60;28.57;101524.53;4516845;28;20033;-58
2023/04/18 02:33:23;;;;;;;1.58;1.48;;;;;;;21.61;28.33;101535.66;4532312;28;20759;-58
2023/04/18 02:35:36;;;;;;;1.50;1.40;;;;;;;21.61;28.54;101534.84;4531116;28;20061;-58
2023/04/18 02:37:46;;;;;;;1.50;1.40;;;;;;;21.60;28.54;101536.00;4533183;28;20610;-58
2023/04/18 02:39:57;;;;;;;1.60;1.50;;;;;;;21.61;28.70;101535.66;4533569;28;20043;-60
2023/04/18 02:42:07;;;;;;;1.42;1.33;;;;;;;21.58;28.37;101530.63;4515067;28;20124;-58
2023/04/18 02:44:18;;;;;;;1.50;1.40;;;;;;;21.58;28.31;101529.81;4532519;28;20090;-58
2023/04/18 02:46:28;;;;;;;1.60;1.50;;;;;;;21.58;28.60;101530.63;4516523;28;20034;-58
2023/04/18 02:48:39;;;;;;;1.60;1.50;;;;;;;21.57;28.56;101531.84;4515545;28;20141;-60
2023/04/18 02:50:50;;;;;;;1.50;1.40;;;;;;;21.57;28.50;101528.09;4531211;28;20072;-59
2023/04/18 02:53:01;;;;;;;1.70;1.60;;;;;;;21.55;28.71;101531.34;4514552;28;20145;-58
2023/04/18 02:55:23;;;;;;;1.60;1.50;;;;;;;21.53;28.72;101533.72;4520175;28;20033;-58
2023/04/18 02:57:36;;;;;;;1.65;1.55;;;;;;;21.55;29.19;101522.72;4515100;28;20053;-58
2023/04/18 03:00:13;;;;;;;1.75;1.65;;;;;;;21.52;29.05;101526.28;4515565;28;20060;-58
2023/04/18 03:02:42;;;;;;;1.55;1.45;;;;;;;21.56;28.80;101521.53;4528771;28;20049;-59
2023/04/18 03:05:11;;;;;;;1.90;1.40;;;;;;;21.54;28.70;101535.41;4513971;28;20041;-58
2023/04/18 03:07:22;;;;;;;1.73;1.42;;;;;;;21.54;28.96;101523.06;4528416;28;20519;-59
2023/04/18 03:09:35;;;;;;;1.50;1.40;;;;;;;21.54;29.11;101529.66;4529640;28;20041;-58
2023/04/18 03:11:51;;;;;;;1.60;1.50;;;;;;;21.56;29.04;101527.28;4513540;28;20037;-58
2023/04/18 03:14:06;;;;;;;1.77;1.67;;;;;;;21.54;29.10;101525.94;4527042;28;20084;-59
2023/04/18 03:16:25;;;;;;;1.50;1.40;;;;;;;21.55;29.23;101525.59;4523701;28;20588;-59
2023/04/18 03:18:35;;;;;;;1.58;1.48;;;;;;;21.53;29.48;101527.97;4517290;28;20040;-61
2023/04/18 03:20:46;;;;;;;1.60;1.50;;;;;;;21.54;28.96;101529.66;4521054;28;20503;-60
2023/04/18 03:22:56;;;;;;;1.58;1.48;;;;;;;21.42;29.61;101509.47;4529100;28;20037;-59
2023/04/18 03:25:09;;;;;;;1.50;1.40;;;;;;;21.54;29.27;101523.06;4529148;28;20172;-64
2023/04/18 03:27:34;;;;;;;1.80;1.70;;;;;;;21.54;29.12;101532.53;4529522;28;20075;-63
2023/04/18 03:29:47;;;;;;;1.50;1.40;;;;;;;21.53;29.13;101524.28;4519850;28;20033;-61
2023/04/18 03:31:58;;;;;;;1.60;1.50;;;;;;;21.53;29.10;101533.72;4527113;28;20112;-63
2023/04/18 03:34:08;;;;;;;1.70;1.60;;;;;;;21.53;29.29;101533.72;4527882;28;20545;-60
2023/04/18 03:36:24;;;;;;;1.63;1.52;;;;;;;21.55;29.63;101536.25;4515032;28;20583;-60
2023/04/18 03:38:35;;;;;;;1.70;1.60;;;;;;;21.48;29.65;101531.06;4507968;28;20038;-59
2023/04/18 03:40:46;;;;;;;1.50;1.40;;;;;;;21.54;29.66;101535.41;4511304;28;20044;-60
2023/04/18 03:43:05;;;;;;;1.58;1.48;;;;;;;21.52;29.67;101537.78;4528537;28;20064;-59
2023/04/18 03:45:15;;;;;;;1.65;1.55;;;;;;;21.48;29.38;101528.19;4528459;28;20088;-60
2023/04/18 03:47:30;;;;;;;1.45;1.35;;;;;;;21.54;29.51;101535.41;4510672;28;20041;-59
2023/04/18 03:49:42;;;;;;;1.60;1.50;;;;;;;21.52;29.17;101537.78;4530708;28;21139;-60
2023/04/18 03:51:52;;;;;;;1.60;1.50;;;;;;;21.49;29.55;101538.50;4513882;28;20038;-58
2023/04/18 03:54:03;;;;;;;1.60;1.50;;;;;;;21.49;29.64;101531.88;4530210;28;20033;-59
2023/04/18 03:56:13;;;;;;;1.65;1.55;;;;;;;21.52;29.29;101546.41;4512730;28;20037;-58
2023/04/18 03:58:32;;;;;;;1.60;1.50;;;;;;;21.46;29.86;101538.34;4512467;28;20230;-58
2023/04/18 04:00:43;;;;;;;1.75;1.63;;;;;;;21.52;29.37;101555.03;4527876;28;20064;-58
2023/04/18 04:02:54;;;;;;;1.95;1.70;;;;;;;21.51;29.70;101541.84;4513144;28;20772;-59
2023/04/18 04:05:05;;;;;;;1.70;1.60;;;;;;;21.47;29.71;101540.03;4502835;28;20062;-59
2023/04/18 04:07:16;;;;;;;1.50;1.40;;;;;;;21.47;29.32;101543.72;4530263;28;20074;-58
2023/04/18 04:09:26;;;;;;;1.80;1.70;;;;;;;21.50;29.45;101540.16;4523003;28;20624;-58
2023/04/18 04:11:37;;;;;;;1.70;1.60;;;;;;;21.51;29.68;101547.59;4515104;28;20067;-58
2023/04/18 04:13:50;;;;;;;1.70;1.60;;;;;;;21.51;29.10;101547.59;4532021;28;20044;-58
2023/04/18 04:16:05;;;;;;;1.73;1.63;;;;;;;21.51;29.94;101543.88;4519625;28;20144;-59
2023/04/18 04:18:16;;;;;;;2.03;1.83;;;;;;;21.48;29.39;101545.44;4530436;28;20810;-59
2023/04/18 04:20:27;;;;;;;1.70;1.60;;;;;;;21.45;29.89;101531.78;4515309;28;20776;-60
2023/04/18 04:22:51;;;;;;;2.03;1.83;;;;;;;21.50;29.52;101551.66;4532529;28;20029;-60
2023/04/18 04:25:03;;;;;;;1.90;1.80;;;;;;;21.49;29.91;101549.97;4529490;28;20333;-58
2023/04/18 04:27:20;;;;;;;1.88;1.77;;;;;;;21.48;29.85;101554.06;4529510;28;20025;-60
2023/04/18 04:29:31;;;;;;;2.10;1.90;;;;;;;21.49;30.10;101549.97;4532221;28;20029;-59
2023/04/18 04:31:42;;;;;;;2.05;1.90;;;;;;;21.48;29.80;101554.06;4534472;28;20963;-58
2023/04/18 04:33:52;;;;;;;2.30;1.90;;;;;;;21.48;29.95;101559.78;4533207;28;20033;-59
2023/04/18 04:36:06;;;;;;;2.30;2.10;;;;;;;21.45;29.73;101554.75;4525289;28;20021;-58
2023/04/18 04:38:18;;;;;;;2.05;1.85;;;;;;;21.48;29.88;101565.53;4518837;28;20030;-59
2023/04/18 04:40:31;;;;;;;2.10;1.90;;;;;;;21.48;30.03;101565.53;4532121;28;20129;-58
2023/04/18 04:42:52;;;;;;;2.17;1.95;;;;;;;21.48;30.44;101564.69;4533796;28;20082;-58
2023/04/18 04:45:08;;;;;;;2.00;1.80;;;;;;;21.44;30.48;101564.53;4514361;28;20041;-59
2023/04/18 04:47:19;;;;;;;2.40;2.20;;;;;;;21.46;30.66;101567.06;4533685;28;20037;-58
2023/04/18 04:49:30;;;;;;;2.10;1.90;;;;;;;21.45;30.68;101572.00;4517075;28;20045;-59
2023/04/18 04:51:40;;;;;;;2.55;2.35;;;;;;;21.47;30.52;101575.34;4532716;28;20042;-59
2023/04/18 04:53:51;;;;;;;2.15;1.95;;;;;;;21.45;30.67;101572.00;4531216;28;20047;-58
2023/04/18 04:56:03;;;;;;;2.25;2.05;;;;;;;21.43;30.73;101579.25;4532811;28;20021;-58
2023/04/18 04:58:14;;;;;;;2.17;1.98;;;;;;;21.44;30.52;101578.91;4530771;28;20074;-59
2023/04/18 05:00:43;;;;;;;2.08;1.88;;;;;;;21.46;30.94;101578.56;4536539;28;20053;-61
2023/04/18 05:02:56;;;;;;;2.40;2.20;;;;;;;21.45;30.80;101580.59;4533520;28;20052;-60
2023/04/18 05:05:08;;;;;;;2.80;2.08;;;;;;;21.47;30.57;101575.34;4516683;28;20030;-60
2023/04/18 05:07:18;;;;;;;2.45;2.13;;;;;;;21.47;30.81;101580.25;4532853;28;20120;-60
2023/04/18 05:09:29;;;;;;;2.20;2.00;;;;;;;21.47;30.50;101580.25;4533185;28;20616;-60
2023/04/18 05:11:39;;;;;;;2.60;2.40;;;;;;;21.38;30.51;101556.47;4532684;28;20025;-60
2023/04/18 05:13:49;;;;;;;2.25;2.05;;;;;;;21.42;30.91;101572.66;4533921;28;20033;-61
2023/04/18 05:16:00;;;;;;;2.53;2.33;;;;;;;21.40;30.83;101575.06;4534443;28;20068;-61
2023/04/18 05:18:12;;;;;;;2.50;2.30;;;;;;;21.40;30.99;101572.19;4533036;28;20563;-61
2023/04/18 05:20:23;;;;;;;2.40;2.20;;;;;;;21.45;31.02;101585.50;4535004;28;20479;-63
2023/04/18 05:22:34;;;;;;;2.45;2.25;;;;;;;21.44;30.87;101593.25;4534040;28;20116;-62
2023/04/18 05:24:45;;;;;;;2.58;2.38;;;;;;;21.43;30.85;101579.25;4535792;28;20445;-63
2023/04/18 05:26:56;;;;;;;2.30;2.10;;;;;;;21.40;31.10;101580.81;4534279;28;20161;-62
2023/04/18 05:29:07;;;;;;;2.53;2.33;;;;;;;21.41;30.82;101584.50;4534536;28;20040;-61
2023/04/18 05:31:17;;;;;;;2.40;2.20;;;;;;;21.41;31.13;101582.47;4516414;28;20104;-61
2023/04/18 05:33:28;;;;;;;2.95;2.60;;;;;;;21.42;31.19;101587.03;4534565;28;20036;-61
2023/04/18 05:35:39;;;;;;;3.10;2.78;;;;;;;21.41;31.22;101587.38;4517182;28;20029;-61
2023/04/18 05:37:50;;;;;;;2.50;2.30;;;;;;;21.35;31.24;101575.25;4535279;28;20041;-61
2023/04/18 05:40:00;;;;;;;2.78;2.58;;;;;;;21.42;30.98;101589.06;4532685;28;20255;-60
2023/04/18 05:42:11;;;;;;;2.60;2.40;;;;;;;21.39;31.40;101587.72;4534536;28;20064;-61
2023/04/18 05:44:23;;;;;;;2.78;2.47;;;;;;;21.41;31.07;101593.97;4533885;28;20029;-61
2023/04/18 05:46:33;;;;;;;3.05;2.75;;;;;;;21.35;31.28;101581.00;4533164;28;20040;-61
2023/04/18 05:48:44;;;;;;;2.60;2.40;;;;;;;21.39;31.52;101593.47;4533104;28;20034;-61
2023/04/18 05:50:54;;;;;;;2.80;2.53;;;;;;;21.38;31.45;101599.56;4535597;28;20032;-61
2023/04/18 05:53:05;;;;;;;2.83;2.40;;;;;;;21.37;31.07;101595.88;4532539;28;20087;-61
2023/04/18 05:55:15;;;;;;;2.95;2.65;;;;;;;21.40;31.37;101602.94;4515680;28;20026;-61
2023/04/18 05:57:26;;;;;;;3.17;2.55;;;;;;;21.36;31.47;101602.78;4532142;28;20037;-61
2023/04/18 05:59:36;;;;;;;2.80;2.30;;;;;;;21.40;31.10;101618.16;4532795;28;20045;-60
2023/04/18 06:01:48;;;;;;;2.25;1.90;;;;;;;21.40;31.20;101603.78;4529250;28;20124;-61
2023/04/18 06:03:58;;;;;;;2.15;1.95;;;;;;;21.39;31.57;101609.88;4532109;28;20667;-61
2023/04/18 06:06:09;;;;;;;2.00;1.80;;;;;;;21.37;31.46;101607.34;4533420;28;20037;-61
2023/04/18 06:08:19;;;;;;;2.28;2.00;;;;;;;21.33;31.34;101602.63;4533228;28;20033;-60
2023/04/18 06:10:30;;;;;;;2.20;2.00;;;;;;;21.36;31.31;101604.84;4533506;28;20079;-60
2023/04/18 06:12:41;;;;;;;2.30;2.10;;;;;;;21.38;31.08;101611.91;4529714;28;20602;-60
2023/04/18 06:14:51;;;;;;;2.13;1.92;;;;;;;21.33;31.33;101606.34;4531688;28;20120;-60
2023/04/18 06:17:01;;;;;;;2.25;2.05;;;;;;;21.37;31.69;101615.13;4529520;28;20033;-60
2023/04/18 06:19:12;;;;;;;2.40;2.20;;;;;;;21.37;31.18;101615.97;4532034;28;20037;-60
2023/04/18 06:21:23;;;;;;;2.00;1.80;;;;;;;21.22;31.32;101584.13;4530783;28;20059;-60
2023/04/18 06:23:33;;;;;;;2.30;2.00;;;;;;;21.36;31.15;101620.00;4531820;28;20486;-60
2023/04/18 06:25:43;;;;;;;2.08;1.88;;;;;;;21.35;31.35;101621.22;4514409;28;20042;-60
2023/04/18 06:27:54;;;;;;;2.10;1.90;;;;;;;21.36;31.77;101614.28;4530829;28;20298;-60
2023/04/18 06:30:06;;;;;;;2.72;2.20;;;;;;;21.31;31.47;101617.34;4532541;28;20044;-61
2023/04/18 06:32:16;;;;;;;2.40;2.20;;;;;;;21.37;31.55;101627.47;4512406;28;20040;-60
2023/04/18 06:34:27;;;;;;;2.25;2.05;;;;;;;21.31;31.58;101625.13;4530658;28;20044;-60
2023/04/18 06:36:37;;;;;;;2.60;2.40;;;;;;;21.37;31.53;101636.06;4508326;28;20032;-61
2023/04/18 06:38:48;;;;;;;2.50;2.30;;;;;;;21.36;31.76;101636.44;4531874;28;20045;-60
2023/04/18 06:40:58;;;;;;;2.60;2.33;;;;;;;21.36;31.84;101637.25;4532805;28;20036;-60
2023/04/18 06:43:09;;;;;;;2.22;2.00;;;;;;;21.33;31.66;101637.94;4533249;28;20115;-60
2023/04/18 06:45:19;;;;;;;2.45;2.25;;;;;;;21.30;31.43;101624.28;4532058;28;20098;-60
2023/04/18 06:47:30;;;;;;;2.30;2.10;;;;;;;21.35;31.56;101647.06;4531733;28;20025;-60
2023/04/18 06:49:40;;;;;;;2.30;2.08;;;;;;;21.29;31.83;101631.22;4530047;28;20595;-60
2023/04/18 06:51:51;;;;;;;2.30;2.10;;;;;;;21.37;32.24;101649.59;4530687;28;20048;-60
2023/04/18 06:54:01;;;;;;;2.80;2.50;;;;;;;21.35;32.27;101644.19;4515562;28;20033;-60
2023/04/18 06:56:12;;;;;;;2.58;2.30;;;;;;;21.34;31.97;101644.53;4533379;28;20676;-60
2023/04/18 06:58:22;;;;;;;2.72;2.53;;;;;;;21.29;31.99;101631.22;4531359;28;20444;-61
2023/04/18 07:00:39;;;;;;;2.78;2.58;;;;;;;21.33;32.08;101637.94;4532867;28;20144;-60
2023/04/18 07:02:49;;;;;;;2.47;2.28;;;;;;;21.34;32.20;101647.41;4505838;28;20037;-60
2023/04/18 07:05:00;;;;;;;2.72;2.53;;;;;;;21.33;32.13;101642.84;4530560;28;20032;-61
2023/04/18 07:07:10;;;;;;;2.42;2.22;;;;;;;21.32;32.32;101650.63;4532867;28;20897;-60
2023/04/18 07:09:21;;;;;;;2.60;2.30;;;;;;;21.35;32.09;101646.22;4531596;28;20075;-61
2023/04/18 07:11:32;;;;;;;2.45;2.25;;;;;;;21.18;32.60;101621.34;4534021;28;20067;-61
2023/04/18 07:13:42;;;;;;;2.70;2.33;;;;;;;21.32;32.22;101652.66;4530172;28;20037;-61
2023/04/18 07:15:53;;;;;;;2.63;2.33;;;;;;;21.30;32.59;101655.88;4533851;28;20086;-61
2023/04/18 07:18:03;;;;;;;2.90;2.60;;;;;;;21.28;32.25;101658.25;4533386;28;20044;-61
2023/04/18 07:20:14;;;;;;;2.55;2.35;;;;;;;21.31;32.13;101662.47;4532072;28;20044;-60
2023/04/18 07:22:24;;;;;;;2.90;2.40;;;;;;;21.19;32.57;101645.97;4530516;28;20713;-61
2023/04/18 07:24:42;;;;;;;3.13;2.50;;;;;;;21.32;32.50;101659.25;4530787;28;20132;-61
2023/04/18 07:26:53;;;;;;;2.60;2.40;;;;;;;21.31;32.28;101660.41;4532311;28;20120;-60
2023/04/18 07:29:03;;;;;;;2.97;2.67;;;;;;;21.31;32.41;101659.59;4533939;28;20028;-61
2023/04/18 07:31:15;;;;;;;2.88;2.50;;;;;;;21.30;32.47;101661.63;4533655;28;20048;-61
2023/04/18 07:33:25;;;;;;;2.80;2.40;;;;;;;21.31;32.53;101660.41;4533141;28;20032;-61
2023/04/18 07:35:36;;;;;;;2.85;2.50;;;;;;;21.31;32.75;101666.16;4531416;28;20021;-61
2023/04/18 07:37:46;;;;;;;3.13;2.72;;;;;;;21.32;32.76;101664.13;4531781;28;20480;-61
2023/04/18 07:39:57;;;;;;;2.65;2.30;;;;;;;21.32;32.59;101670.75;4531837;28;20057;-61
2023/04/18 07:42:08;;;;;;;2.75;2.30;;;;;;;21.29;32.88;101659.94;4501947;28;20100;-61
2023/04/18 07:44:20;;;;;;;3.10;2.67;;;;;;;21.30;32.75;101661.63;4531069;28;20975;-59
2023/04/18 07:46:32;;;;;;;2.70;2.50;;;;;;;21.32;32.45;101664.13;4532248;28;20056;-59
2023/04/18 07:48:43;;;;;;;2.60;2.30;;;;;;;21.33;33.03;101666.66;4530465;28;20021;-59
2023/04/18 07:50:53;;;;;;;3.42;2.42;;;;;;;21.33;32.99;101663.78;4532525;28;20033;-59
2023/04/18 07:53:04;;;;;;;3.00;2.45;;;;;;;21.28;33.25;101651.69;4512148;28;20835;-60
2023/04/18 07:55:14;;;;;;;2.50;2.30;;;;;;;21.32;33.32;101662.13;4533126;28;20124;-59
2023/04/18 07:57:25;;;;;;;2.65;2.42;;;;;;;21.31;33.22;101656.72;4529990;28;20029;-59
2023/04/18 07:59:35;;;;;;;2.80;2.50;;;;;;;21.31;33.01;101663.28;4530712;28;20080;-61
2023/04/18 08:01:46;;;;;;;2.58;2.38;;;;;;;21.33;32.94;101660.91;4529923;28;20061;-60
2023/04/18 08:04:00;;;;;;;3.05;2.75;;;;;;;21.32;33.27;101664.13;4533077;28;20041;-60
2023/04/18 08:06:10;;;;;;;2.60;2.40;;;;;;;21.31;33.21;101669.03;4532698;28;20028;-60
2023/04/18 08:08:21;;;;;;;2.97;2.65;;;;;;;21.32;33.51;101670.75;4534393;28;20029;-60
2023/04/18 08:10:31;;;;;;;2.45;2.25;;;;;;;21.31;33.45;101668.22;4533565;28;20114;-60
2023/04/18 08:12:41;;;;;;;3.10;2.80;;;;;;;21.29;32.96;101665.69;4533210;28;20041;-60
2023/04/18 08:14:52;;;;;;;2.92;2.50;;;;;;;21.29;33.29;101664.84;4533863;28;20133;-60
2023/04/18 08:17:02;;;;;;;3.00;2.60;;;;;;;21.33;32.71;101678.16;4533629;28;20063;-60
2023/04/18 08:19:13;;;;;;;2.90;2.60;;;;;;;21.28;33.16;101655.38;4516263;28;20081;-60
2023/04/18 08:21:23;;;;;;;3.03;2.50;;;;;;;21.33;32.99;101668.69;4533175;28;20110;-60
2023/04/18 08:23:34;;;;;;;3.10;2.80;;;;;;;21.32;33.27;101659.25;4535249;28;20021;-60
2023/04/18 08:25:44;;;;;;;3.30;2.78;;;;;;;21.31;33.00;101669.03;4533828;28;20112;-60
2023/04/18 08:27:55;;;;;;;3.20;2.83;;;;;;;21.32;33.29;101673.59;4535371;28;20041;-60
2023/04/18 08:30:06;;;;;;;3.40;3.08;;;;;;;21.23;33.19;101649.81;4510153;28;20734;-60
2023/04/18 08:32:16;;;;;;;3.00;2.70;;;;;;;21.31;33.06;101669.03;4532364;28;20069;-60
2023/04/18 08:34:28;;;;;;;3.10;2.80;;;;;;;21.31;33.45;101663.28;4527276;28;20100;-60
2023/04/18 08:36:39;;;;;;;2.85;2.55;;;;;;;21.32;32.95;101678.50;4532878;28;20083;-60
2023/04/18 08:38:49;;;;;;;3.30;3.00;;;;;;;21.30;33.32;101673.09;4536487;28;20021;-60
2023/04/18 08:40:59;;;;;;;3.30;3.00;;;;;;;21.31;33.56;101671.09;4533678;28;20055;-60
2023/04/18 08:43:13;;;;;;;3.60;3.30;;;;;;;21.31;33.11;101680.50;4533576;28;20397;-60
2023/04/18 08:45:24;;;;;;;3.30;3.00;;;;;;;21.29;33.37;101682.91;4535026;28;20041;-60
2023/04/18 08:47:35;;;;;;;3.20;2.90;;;;;;;21.32;33.37;101682.22;4536143;28;20037;-60
2023/04/18 08:49:46;;;;;;;3.30;3.00;;;;;;;21.32;33.54;101682.22;4535507;28;20585;-61
2023/04/18 08:51:59;;;;;;;3.22;2.92;;;;;;;21.31;33.54;101679.69;4532700;28;20212;-60
2023/04/18 08:54:11;;;;;;;3.00;2.75;;;;;;;21.32;33.40;101687.97;4532044;28;20026;-60
2023/04/18 08:56:24;;;;;;;3.30;2.95;;;;;;;21.29;33.48;101674.31;4516183;28;20132;-60
2023/04/18 08:58:35;;;;;;;3.08;2.75;;;;;;;21.32;33.68;101675.63;4535200;28;20126;-60
2023/04/18 09:00:49;;;;;;;3.33;2.92;;;;;;;21.33;33.79;101677.31;4508088;28;20052;-60
2023/04/18 09:03:01;;;;;;;3.17;2.88;;;;;;;21.33;33.61;101683.91;4532968;28;20044;-60
2023/04/18 09:05:18;;;;;;;3.58;3.28;;;;;;;21.33;33.96;101678.16;4534573;28;20042;-60
2023/04/18 09:07:29;;;;;;;3.17;2.88;;;;;;;21.31;33.79;101686.25;4532536;28;20114;-60
2023/04/18 09:09:47;;;;;;;3.33;3.03;;;;;;;21.31;33.97;101691.19;4536033;28;20048;-61
2023/04/18 09:12:08;;;;;;;3.53;2.80;;;;;;;21.34;34.06;101688.47;4517162;28;20068;-59
2023/04/18 09:14:25;;;;;;;3.60;3.30;;;;;;;21.29;33.82;101682.06;4533026;28;20037;-60
2023/04/18 09:16:49;;;;;;;3.42;3.13;;;;;;;21.34;33.62;101696.22;4535117;28;20692;-61
2023/04/18 09:19:16;;;;;;;1.15;1.05;;;;;;;21.45;41.08;101695.50;4534059;28;20037;-60
2023/04/18 09:21:28;;;;;;;;;;;;;;;21.66;41.58;101698.41;4535141;28;20152;-60
2023/04/18 09:23:39;;;;;;;2.83;2.53;;;;;;;21.46;34.39;101693.44;4534127;28;19916;-60
2023/04/18 09:25:51;;;;;;;3.25;2.95;;;;;;;21.38;34.46;101682.84;4533249;28;20033;-60
2023/04/18 09:28:19;;;;;;;3.42;3.13;;;;;;;21.39;34.04;101699.72;4535379;28;20057;-61
2023/04/18 09:30:33;;;;;;;3.47;3.10;;;;;;;21.37;33.73;101687.78;4536304;28;20142;-60
2023/04/18 09:32:56;;;;;;;3.40;3.03;;;;;;;21.35;33.87;101686.41;4532009;28;20043;-60
2023/04/18 09:35:08;;;;;;;3.60;3.22;;;;;;;21.35;34.20;101693.00;4535032;28;20048;-61
2023/04/18 09:37:19;;;;;;;3.40;3.10;;;;;;;21.36;33.92;101694.69;4533471;28;20072;-62
2023/04/18 09:39:30;;;;;;;3.78;3.30;;;;;;;21.32;33.65;101693.72;4534596;28;20044;-61
2023/04/18 09:41:56;;;;;;;3.72;3.30;;;;;;;21.32;33.85;101685.09;4516401;28;20053;-61
2023/04/18 09:44:10;;;;;;;3.75;3.35;;;;;;;21.34;34.11;101697.09;4516053;28;20230;-61
2023/04/18 09:46:21;;;;;;;3.67;3.38;;;;;;;21.35;33.83;101692.16;4534827;28;20037;-61
2023/04/18 09:48:31;;;;;;;4.00;3.60;;;;;;;21.32;34.14;101693.72;4536539;28;20032;-62
2023/04/18 09:50:44;;;;;;;3.80;3.40;;;;;;;21.34;33.92;101691.34;4533704;28;20895;-61
2023/04/18 09:52:56;;;;;;;3.58;3.08;;;;;;;21.33;34.22;101689.63;4532193;28;20064;-61
2023/04/18 09:55:12;;;;;;;3.40;3.10;;;;;;;21.33;34.04;101685.91;4533040;28;20103;-61
2023/04/18 09:57:26;;;;;;;3.35;3.00;;;;;;;21.34;34.14;101694.22;4535519;28;20602;-61
2023/04/18 10:00:22;;;;;;;3.10;2.80;;;;;;;21.35;34.13;101692.16;4534882;28;20048;-61
2023/04/18 10:03:07;;;;;;;3.35;2.88;;;;;;;21.36;33.82;101694.69;4531644;28;20037;-61
2023/04/18 10:05:19;;;;;;;3.25;2.95;;;;;;;21.31;33.95;101680.50;4524601;28;20048;-61
2023/04/18 10:07:30;;;;;;;3.20;2.90;;;;;;;21.37;34.27;101689.78;4532772;28;20190;-59
2023/04/18 10:09:43;;;;;;;3.53;3.08;;;;;;;21.38;33.90;101692.31;4535195;28;20037;-59
2023/04/18 10:11:54;;;;;;;3.33;3.03;;;;;;;21.38;34.03;101698.06;4533372;28;20036;-59
2023/04/18 10:14:10;;;;;;;3.20;2.90;;;;;;;21.39;34.34;101690.28;4520502;28;20034;-60